Terminal Aerodrome Forecast
Issued by NWS St Louis, MO

Home | Current Version | Previous Version | Text Only | Print | Product List | Glossary On
Versions: 1 2 3 4 5 6 7 8 9 10 11 12 13 14 15 16 17 18 19 20 21 22 23 24 25 26 27 28 29 30 31 32 33 34 35 36
000
FTUS43 KLSX 260900 AAC
TAFSTL
TAF AMD
KSTL 260904Z 2609/2712 16012KT P6SM VCSH SCT015 OVC100
      TEMPO 2611/2613 6SM -SHRA
     FM261300 20012G22KT P6SM SCT025 BKN100=

USA.gov is the U.S. government's official web portal to all federal, state and local government web resources and services.